sensor_id;sensor_type;location;lat;lon;timestamp;pressure;altitude;pressure_sealevel;temperature;humidity
43364;BME280;40636;52.424;-1.948;2023-02-13T00:01:56;101787.91;;;6.31;100.00
43364;BME280;40636;52.424;-1.948;2023-02-13T00:04:23;101795.06;;;6.32;100.00
43364;BME280;40636;52.424;-1.948;2023-02-13T00:06:49;101783.13;;;6.33;100.00
43364;BME280;40636;52.424;-1.948;2023-02-13T00:09:16;101778.03;;;6.30;100.00
43364;BME280;40636;52.424;-1.948;2023-02-13T00:11:43;101786.91;;;6.32;100.00
43364;BME280;40636;52.424;-1.948;2023-02-13T00:14:09;101781.59;;;6.30;100.00
43364;BME280;40636;52.424;-1.948;2023-02-13T00:16:36;101786.91;;;6.32;100.00
43364;BME280;40636;52.424;-1.948;2023-02-13T00:19:03;101785.66;;;6.34;100.00
43364;BME280;40636;52.424;-1.948;2023-02-13T00:21:30;101794.03;;;6.33;100.00
43364;BME280;40636;52.424;-1.948;2023-02-13T00:23:56;101791.84;;;6.28;100.00
43364;BME280;40636;52.424;-1.948;2023-02-13T00:26:23;101799.00;;;6.29;100.00
43364;BME280;40636;52.424;-1.948;2023-02-13T00:28:50;101798.81;;;6.31;100.00
43364;BME280;40636;52.424;-1.948;2023-02-13T00:31:19;101794.75;;;6.27;100.00
43364;BME280;40636;52.424;-1.948;2023-02-13T00:33:46;101793.00;;;6.34;100.00
43364;BME280;40636;52.424;-1.948;2023-02-13T00:36:16;101794.38;;;6.30;100.00
43364;BME280;40636;52.424;-1.948;2023-02-13T00:38:43;101784.84;;;6.26;100.00
43364;BME280;40636;52.424;-1.948;2023-02-13T00:41:10;101785.16;;;6.31;100.00
43364;BME280;40636;52.424;-1.948;2023-02-13T00:43:37;101792.69;;;6.29;100.00
43364;BME280;40636;52.424;-1.948;2023-02-13T00:46:04;101787.75;;;6.32;100.00
43364;BME280;40636;52.424;-1.948;2023-02-13T00:48:33;101784.81;;;6.34;100.00
43364;BME280;40636;52.424;-1.948;2023-02-13T00:51:00;101771.50;;;6.39;100.00
43364;BME280;40636;52.424;-1.948;2023-02-13T00:53:27;101776.84;;;6.32;100.00
43364;BME280;40636;52.424;-1.948;2023-02-13T00:55:54;101775.63;;;6.35;100.00
43364;BME280;40636;52.424;-1.948;2023-02-13T00:58:21;101777.69;;;6.33;100.00
43364;BME280;40636;52.424;-1.948;2023-02-13T01:00:49;101771.53;;;6.31;100.00
43364;BME280;40636;52.424;-1.948;2023-02-13T01:03:17;101772.56;;;6.30;100.00
43364;BME280;40636;52.424;-1.948;2023-02-13T01:05:45;101768.16;;;6.29;100.00
43364;BME280;40636;52.424;-1.948;2023-02-13T01:08:13;101768.34;;;6.27;100.00
43364;BME280;40636;52.424;-1.948;2023-02-13T01:10:42;101764.44;;;6.22;100.00
43364;BME280;40636;52.424;-1.948;2023-02-13T01:13:10;101747.06;;;6.23;100.00
43364;BME280;40636;52.424;-1.948;2023-02-13T01:15:38;101753.53;;;6.22;100.00
43364;BME280;40636;52.424;-1.948;2023-02-13T01:18:05;101751.66;;;6.22;100.00
43364;BME280;40636;52.424;-1.948;2023-02-13T01:20:32;101742.63;;;6.22;100.00
43364;BME280;40636;52.424;-1.948;2023-02-13T01:22:59;101747.22;;;6.21;100.00
43364;BME280;40636;52.424;-1.948;2023-02-13T01:25:25;101750.63;;;6.23;100.00
43364;BME280;40636;52.424;-1.948;2023-02-13T01:27:53;101749.06;;;6.29;100.00
43364;BME280;40636;52.424;-1.948;2023-02-13T01:30:20;101739.84;;;6.30;100.00
43364;BME280;40636;52.424;-1.948;2023-02-13T01:32:46;101746.16;;;6.30;100.00
43364;BME280;40636;52.424;-1.948;2023-02-13T01:35:14;101738.66;;;6.32;100.00
43364;BME280;40636;52.424;-1.948;2023-02-13T01:37:42;101743.75;;;6.35;100.00
43364;BME280;40636;52.424;-1.948;2023-02-13T01:40:13;101727.56;;;6.34;100.00
43364;BME280;40636;52.424;-1.948;2023-02-13T01:42:40;101738.88;;;6.23;100.00
43364;BME280;40636;52.424;-1.948;2023-02-13T01:45:23;101723.72;;;6.20;100.00
43364;BME280;40636;52.424;-1.948;2023-02-13T01:47:57;101730.75;;;6.15;100.00
43364;BME280;40636;52.424;-1.948;2023-02-13T01:53:06;101739.91;;;6.22;100.00
43364;BME280;40636;52.424;-1.948;2023-02-13T01:55:51;101730.53;;;6.24;100.00
43364;BME280;40636;52.424;-1.948;2023-02-13T01:58:24;101733.38;;;6.31;100.00
43364;BME280;40636;52.424;-1.948;2023-02-13T02:00:51;101732.81;;;6.35;100.00
43364;BME280;40636;52.424;-1.948;2023-02-13T02:03:46;101730.28;;;6.34;100.00
43364;BME280;40636;52.424;-1.948;2023-02-13T02:06:19;101737.81;;;6.32;100.00
43364;BME280;40636;52.424;-1.948;2023-02-13T02:08:49;101736.09;;;6.31;100.00
43364;BME280;40636;52.424;-1.948;2023-02-13T02:11:33;101732.38;;;6.32;100.00
43364;BME280;40636;52.424;-1.948;2023-02-13T02:14:01;101732.75;;;6.21;100.00
43364;BME280;40636;52.424;-1.948;2023-02-13T02:16:30;101729.69;;;6.24;100.00
43364;BME280;40636;52.424;-1.948;2023-02-13T02:19:00;101734.09;;;6.25;100.00
43364;BME280;40636;52.424;-1.948;2023-02-13T02:24:44;101722.84;;;6.28;100.00
43364;BME280;40636;52.424;-1.948;2023-02-13T02:35:27;101718.59;;;6.25;100.00
43364;BME280;40636;52.424;-1.948;2023-02-13T02:38:25;101716.53;;;6.27;100.00
43364;BME280;40636;52.424;-1.948;2023-02-13T02:41:06;101721.84;;;6.21;100.00
43364;BME280;40636;52.424;-1.948;2023-02-13T02:43:53;101716.69;;;6.26;100.00
43364;BME280;40636;52.424;-1.948;2023-02-13T02:47:05;101715.00;;;6.25;100.00
43364;BME280;40636;52.424;-1.948;2023-02-13T02:49:49;101715.19;;;6.23;100.00
43364;BME280;40636;52.424;-1.948;2023-02-13T02:52:52;101718.44;;;6.27;100.00
43364;BME280;40636;52.424;-1.948;2023-02-13T02:58:05;101707.88;;;6.24;100.00
43364;BME280;40636;52.424;-1.948;2023-02-13T03:00:54;101712.28;;;6.25;100.00
43364;BME280;40636;52.424;-1.948;2023-02-13T03:03:41;101702.72;;;6.29;100.00
43364;BME280;40636;52.424;-1.948;2023-02-13T03:06:40;101707.13;;;6.30;100.00
43364;BME280;40636;52.424;-1.948;2023-02-13T03:09:13;101714.66;;;6.28;100.00
43364;BME280;40636;52.424;-1.948;2023-02-13T03:12:00;101709.38;;;6.26;100.00
43364;BME280;40636;52.424;-1.948;2023-02-13T03:14:46;101706.97;;;6.31;100.00
43364;BME280;40636;52.424;-1.948;2023-02-13T03:17:15;101707.97;;;6.30;100.00
43364;BME280;40636;52.424;-1.948;2023-02-13T03:20:22;101708.47;;;6.34;100.00
43364;BME280;40636;52.424;-1.948;2023-02-13T03:28:57;101698.34;;;6.20;100.00
43364;BME280;40636;52.424;-1.948;2023-02-13T03:31:53;101702.22;;;6.25;100.00
43364;BME280;40636;52.424;-1.948;2023-02-13T03:34:30;101698.31;;;6.28;100.00
43364;BME280;40636;52.424;-1.948;2023-02-13T03:37:25;101692.34;;;6.24;100.00
43364;BME280;40636;52.424;-1.948;2023-02-13T03:40:15;101688.78;;;6.24;100.00
43364;BME280;40636;52.424;-1.948;2023-02-13T03:42:52;101686.56;;;6.27;100.00
43364;BME280;40636;52.424;-1.948;2023-02-13T03:45:34;101693.88;;;6.27;100.00
43364;BME280;40636;52.424;-1.948;2023-02-13T03:48:33;101693.38;;;6.23;100.00
43364;BME280;40636;52.424;-1.948;2023-02-13T03:53:59;101694.59;;;6.21;100.00
43364;BME280;40636;52.424;-1.948;2023-02-13T03:56:27;101694.59;;;6.21;100.00
43364;BME280;40636;52.424;-1.948;2023-02-13T03:59:20;101691.19;;;6.19;100.00
43364;BME280;40636;52.424;-1.948;2023-02-13T04:01:53;101689.16;;;6.13;100.00
43364;BME280;40636;52.424;-1.948;2023-02-13T04:04:34;101687.47;;;6.12;100.00
43364;BME280;40636;52.424;-1.948;2023-02-13T04:07:08;101690.50;;;6.17;100.00
43364;BME280;40636;52.424;-1.948;2023-02-13T04:09:40;101693.09;;;6.18;100.00
43364;BME280;40636;52.424;-1.948;2023-02-13T04:12:18;101697.72;;;6.09;100.00
43364;BME280;40636;52.424;-1.948;2023-02-13T04:14:57;101684.06;;;6.18;100.00
43364;BME280;40636;52.424;-1.948;2023-02-13T04:17:35;101686.94;;;6.16;100.00
43364;BME280;40636;52.424;-1.948;2023-02-13T04:20:05;101679.44;;;6.18;100.00
43364;BME280;40636;52.424;-1.948;2023-02-13T04:22:32;101681.69;;;6.15;100.00
43364;BME280;40636;52.424;-1.948;2023-02-13T04:24:59;101686.28;;;6.14;100.00
43364;BME280;40636;52.424;-1.948;2023-02-13T04:27:27;101674.16;;;6.17;100.00
43364;BME280;40636;52.424;-1.948;2023-02-13T04:29:53;101679.50;;;6.10;100.00
43364;BME280;40636;52.424;-1.948;2023-02-13T04:32:20;101674.69;;;6.12;100.00
43364;BME280;40636;52.424;-1.948;2023-02-13T04:34:46;101667.03;;;6.16;100.00
43364;BME280;40636;52.424;-1.948;2023-02-13T04:37:13;101668.72;;;6.17;100.00
43364;BME280;40636;52.424;-1.948;2023-02-13T04:39:40;101670.44;;;6.18;100.00
43364;BME280;40636;52.424;-1.948;2023-02-13T04:42:06;101672.16;;;6.10;100.00
43364;BME280;40636;52.424;-1.948;2023-02-13T04:44:33;101661.91;;;6.13;100.00
43364;BME280;40636;52.424;-1.948;2023-02-13T04:47:00;101666.72;;;6.10;100.00
43364;BME280;40636;52.424;-1.948;2023-02-13T04:49:26;101665.56;;;6.05;100.00
43364;BME280;40636;52.424;-1.948;2023-02-13T04:51:53;101666.72;;;6.10;100.00
43364;BME280;40636;52.424;-1.948;2023-02-13T04:54:20;101670.16;;;6.04;100.00
43364;BME280;40636;52.424;-1.948;2023-02-13T04:56:46;101677.16;;;5.99;100.00
43364;BME280;40636;52.424;-1.948;2023-02-13T04:59:13;101674.28;;;6.00;100.00
43364;BME280;40636;52.424;-1.948;2023-02-13T05:01:40;101672.69;;;6.06;100.00
43364;BME280;40636;52.424;-1.948;2023-02-13T05:04:06;101674.72;;;6.04;100.00
43364;BME280;40636;52.424;-1.948;2023-02-13T05:06:33;101666.75;;;6.02;100.00
43364;BME280;40636;52.424;-1.948;2023-02-13T05:09:00;101673.53;;;6.06;100.00
43364;BME280;40636;52.424;-1.948;2023-02-13T05:11:26;101683.59;;;6.06;100.00
43364;BME280;40636;52.424;-1.948;2023-02-13T05:13:53;101675.22;;;6.07;100.00
43364;BME280;40636;52.424;-1.948;2023-02-13T05:16:20;101673.19;;;6.09;100.00
43364;BME280;40636;52.424;-1.948;2023-02-13T05:18:47;101669.13;;;6.05;100.00
43364;BME280;40636;52.424;-1.948;2023-02-13T05:21:13;101669.63;;;6.09;100.00
43364;BME280;40636;52.424;-1.948;2023-02-13T05:23:59;101670.81;;;6.06;100.00
43364;BME280;40636;52.424;-1.948;2023-02-13T05:26:25;101673.34;;;6.08;100.00
43364;BME280;40636;52.424;-1.948;2023-02-13T05:28:52;101669.97;;;6.06;100.00
43364;BME280;40636;52.424;-1.948;2023-02-13T05:31:37;101677.63;;;6.10;100.00
43364;BME280;40636;52.424;-1.948;2023-02-13T05:34:04;101673.03;;;6.03;100.00
43364;BME280;40636;52.424;-1.948;2023-02-13T05:36:30;101675.97;;;6.01;100.00
43364;BME280;40636;52.424;-1.948;2023-02-13T05:38:57;101672.38;;;6.01;100.00
43364;BME280;40636;52.424;-1.948;2023-02-13T05:41:24;101664.22;;;6.01;100.00
43364;BME280;40636;52.424;-1.948;2023-02-13T05:43:50;101666.56;;;6.04;100.00
43364;BME280;40636;52.424;-1.948;2023-02-13T05:46:17;101672.88;;;6.04;100.00
43364;BME280;40636;52.424;-1.948;2023-02-13T05:48:44;101665.38;;;6.06;100.00
43364;BME280;40636;52.424;-1.948;2023-02-13T05:51:10;101672.19;;;6.02;100.00
43364;BME280;40636;52.424;-1.948;2023-02-13T05:53:37;101667.59;;;6.03;100.00
43364;BME280;40636;52.424;-1.948;2023-02-13T05:56:05;101674.28;;;6.00;100.00
43364;BME280;40636;52.424;-1.948;2023-02-13T05:58:33;101676.16;;;6.00;100.00
43364;BME280;40636;52.424;-1.948;2023-02-13T06:01:00;101671.84;;;6.05;100.00
43364;BME280;40636;52.424;-1.948;2023-02-13T06:03:28;101676.94;;;6.08;100.00
43364;BME280;40636;52.424;-1.948;2023-02-13T06:05:55;101680.19;;;6.04;100.00
43364;BME280;40636;52.424;-1.948;2023-02-13T06:08:22;101686.84;;;6.01;100.00
43364;BME280;40636;52.424;-1.948;2023-02-13T06:10:50;101684.66;;;5.97;100.00
43364;BME280;40636;52.424;-1.948;2023-02-13T06:13:17;101689.81;;;5.92;100.00
43364;BME280;40636;52.424;-1.948;2023-02-13T06:15:44;101682.47;;;5.92;100.00
43364;BME280;40636;52.424;-1.948;2023-02-13T06:18:11;101683.31;;;5.93;100.00
43364;BME280;40636;52.424;-1.948;2023-02-13T06:20:38;101681.94;;;5.89;100.00
43364;BME280;40636;52.424;-1.948;2023-02-13T06:23:04;101683.81;;;5.88;100.00
43364;BME280;40636;52.424;-1.948;2023-02-13T06:25:33;101681.28;;;5.87;100.00
43364;BME280;40636;52.424;-1.948;2023-02-13T06:28:00;101683.16;;;5.86;100.00
43364;BME280;40636;52.424;-1.948;2023-02-13T06:30:27;101685.88;;;5.86;100.00
43364;BME280;40636;52.424;-1.948;2023-02-13T06:32:54;101678.72;;;5.93;100.00
43364;BME280;40636;52.424;-1.948;2023-02-13T06:35:21;101673.59;;;5.90;100.00
43364;BME280;40636;52.424;-1.948;2023-02-13T06:37:47;101677.34;;;5.89;100.00
43364;BME280;40636;52.424;-1.948;2023-02-13T06:40:15;101673.97;;;5.87;100.00
43364;BME280;40636;52.424;-1.948;2023-02-13T06:42:43;101667.50;;;5.80;100.00
43364;BME280;40636;52.424;-1.948;2023-02-13T06:45:11;101672.81;;;5.73;100.00
43364;BME280;40636;52.424;-1.948;2023-02-13T06:47:45;101670.47;;;5.62;100.00
43364;BME280;40636;52.424;-1.948;2023-02-13T06:50:14;101671.81;;;5.66;100.00
43364;BME280;40636;52.424;-1.948;2023-02-13T06:52:49;101664.88;;;5.64;100.00
43364;BME280;40636;52.424;-1.948;2023-02-13T06:55:16;101659.22;;;5.65;100.00
43364;BME280;40636;52.424;-1.948;2023-02-13T06:57:44;101660.75;;;5.68;100.00
43364;BME280;40636;52.424;-1.948;2023-02-13T07:00:12;101666.53;;;5.73;100.00
43364;BME280;40636;52.424;-1.948;2023-02-13T07:02:40;101664.47;;;5.75;100.00
43364;BME280;40636;52.424;-1.948;2023-02-13T07:05:08;101666.00;;;5.77;100.00
43364;BME280;40636;52.424;-1.948;2023-02-13T07:07:36;101664.47;;;5.75;100.00
43364;BME280;40636;52.424;-1.948;2023-02-13T07:10:04;101662.16;;;5.64;100.00
43364;BME280;40636;52.424;-1.948;2023-02-13T07:12:32;101650.72;;;5.68;100.00
43364;BME280;40636;52.424;-1.948;2023-02-13T07:14:59;101663.84;;;5.65;100.00
43364;BME280;40636;52.424;-1.948;2023-02-13T07:17:26;101651.25;;;5.64;100.00
43364;BME280;40636;52.424;-1.948;2023-02-13T07:19:52;101662.47;;;5.60;100.00
43364;BME280;40636;52.424;-1.948;2023-02-13T07:22:19;101663.00;;;5.56;100.00
43364;BME280;40636;52.424;-1.948;2023-02-13T07:24:46;101662.31;;;5.54;100.00
43364;BME280;40636;52.424;-1.948;2023-02-13T07:27:13;101661.13;;;5.56;100.00
43364;BME280;40636;52.424;-1.948;2023-02-13T07:29:40;101663.53;;;5.51;100.00
43364;BME280;40636;52.424;-1.948;2023-02-13T07:32:10;101657.38;;;5.57;100.00
43364;BME280;40636;52.424;-1.948;2023-02-13T07:34:37;101672.03;;;5.56;100.00
43364;BME280;40636;52.424;-1.948;2023-02-13T07:37:11;101669.81;;;5.52;100.00
43364;BME280;40636;52.424;-1.948;2023-02-13T07:39:38;101659.78;;;5.52;100.00
43364;BME280;40636;52.424;-1.948;2023-02-13T07:42:05;101663.19;;;5.54;100.00
43364;BME280;40636;52.424;-1.948;2023-02-13T07:44:32;101667.44;;;5.57;100.00
43364;BME280;40636;52.424;-1.948;2023-02-13T07:46:58;101661.78;;;5.58;100.00
43364;BME280;40636;52.424;-1.948;2023-02-13T07:49:26;101665.53;;;5.57;100.00
43364;BME280;40636;52.424;-1.948;2023-02-13T07:51:55;101658.06;;;5.59;100.00
43364;BME280;40636;52.424;-1.948;2023-02-13T07:54:22;101657.03;;;5.60;100.00
43364;BME280;40636;52.424;-1.948;2023-02-13T07:56:49;101662.16;;;5.64;100.00
43364;BME280;40636;52.424;-1.948;2023-02-13T07:59:16;101662.16;;;5.64;100.00
43364;BME280;40636;52.424;-1.948;2023-02-13T08:01:42;101666.56;;;5.65;100.00
43364;BME280;40636;52.424;-1.948;2023-02-13T08:04:09;101669.94;;;5.67;100.00
43364;BME280;40636;52.424;-1.948;2023-02-13T08:06:38;101676.09;;;5.60;100.00
43364;BME280;40636;52.424;-1.948;2023-02-13T08:09:06;101667.44;;;5.57;100.00
43364;BME280;40636;52.424;-1.948;2023-02-13T08:11:52;101678.81;;;5.60;100.00
43364;BME280;40636;52.424;-1.948;2023-02-13T08:14:20;101671.53;;;5.53;100.00
43364;BME280;40636;52.424;-1.948;2023-02-13T08:16:48;101668.28;;;5.57;100.00
43364;BME280;40636;52.424;-1.948;2023-02-13T08:19:15;101665.41;;;5.59;100.00
43364;BME280;40636;52.424;-1.948;2023-02-13T08:21:42;101665.41;;;5.59;100.00
43364;BME280;40636;52.424;-1.948;2023-02-13T08:24:09;101667.25;;;5.58;100.00
43364;BME280;40636;52.424;-1.948;2023-02-13T08:26:36;101669.63;;;5.62;100.00
43364;BME280;40636;52.424;-1.948;2023-02-13T08:29:04;101681.56;;;5.60;100.00
43364;BME280;40636;52.424;-1.948;2023-02-13T08:31:31;101668.78;;;5.61;100.00
43364;BME280;40636;52.424;-1.948;2023-02-13T08:33:58;101669.78;;;5.68;100.00
43364;BME280;40636;52.424;-1.948;2023-02-13T08:36:25;101668.91;;;5.68;100.00
43364;BME280;40636;52.424;-1.948;2023-02-13T08:38:52;101669.78;;;5.68;100.00
43364;BME280;40636;52.424;-1.948;2023-02-13T08:41:18;101669.25;;;5.73;100.00
43364;BME280;40636;52.424;-1.948;2023-02-13T08:43:48;101668.72;;;5.77;100.00
43364;BME280;40636;52.424;-1.948;2023-02-13T08:46:16;101672.94;;;5.80;100.00
43364;BME280;40636;52.424;-1.948;2023-02-13T08:48:43;101676.19;;;5.83;100.00
43364;BME280;40636;52.424;-1.948;2023-02-13T08:51:11;101670.53;;;5.85;100.00
43364;BME280;40636;52.424;-1.948;2023-02-13T08:53:39;101674.13;;;5.85;100.00
43364;BME280;40636;52.424;-1.948;2023-02-13T08:56:06;101680.78;;;5.83;100.00
43364;BME280;40636;52.424;-1.948;2023-02-13T08:58:32;101679.41;;;5.87;100.00
43364;BME280;40636;52.424;-1.948;2023-02-13T09:00:59;101681.94;;;5.89;100.00
43364;BME280;40636;52.424;-1.948;2023-02-13T09:03:29;101673.09;;;5.87;100.00
43364;BME280;40636;52.424;-1.948;2023-02-13T09:05:58;101662.88;;;5.89;100.00
43364;BME280;40636;52.424;-1.948;2023-02-13T09:08:26;101658.97;;;5.91;100.00
43364;BME280;40636;52.424;-1.948;2023-02-13T09:10:58;101658.97;;;5.91;100.00
43364;BME280;40636;52.424;-1.948;2023-02-13T09:13:25;101660.69;;;5.92;100.00
43364;BME280;40636;52.424;-1.948;2023-02-13T09:15:52;101660.50;;;5.85;100.00
43364;BME280;40636;52.424;-1.948;2023-02-13T09:18:19;101657.09;;;5.92;100.00
43364;BME280;40636;52.424;-1.948;2023-02-13T09:20:46;101656.19;;;5.99;100.00
43364;BME280;40636;52.424;-1.948;2023-02-13T09:23:12;101655.84;;;6.02;100.00
43364;BME280;40636;52.424;-1.948;2023-02-13T09:25:39;101659.06;;;6.06;100.00
43364;BME280;40636;52.424;-1.948;2023-02-13T09:28:06;101661.66;;;5.99;100.00
43364;BME280;40636;52.424;-1.948;2023-02-13T09:30:33;101663.00;;;6.03;100.00
43364;BME280;40636;52.424;-1.948;2023-02-13T09:32:59;101660.25;;;6.03;100.00
43364;BME280;40636;52.424;-1.948;2023-02-13T09:35:26;101657.91;;;6.00;100.00
43364;BME280;40636;52.424;-1.948;2023-02-13T09:37:55;101660.66;;;6.00;100.00
43364;BME280;40636;52.424;-1.948;2023-02-13T09:40:28;101662.00;;;6.04;100.00
43364;BME280;40636;52.424;-1.948;2023-02-13T09:43:06;101656.84;;;6.09;100.00
43364;BME280;40636;52.424;-1.948;2023-02-13T09:45:37;101658.88;;;6.07;100.00
43364;BME280;40636;52.424;-1.948;2023-02-13T09:48:05;101655.13;;;6.08;100.00
43364;BME280;40636;52.424;-1.948;2023-02-13T09:50:32;101668.72;;;6.17;100.00
43364;BME280;40636;52.424;-1.948;2023-02-13T09:53:00;101664.09;;;6.17;100.00
43364;BME280;40636;52.424;-1.948;2023-02-13T09:55:56;101658.66;;;6.17;100.00
43364;BME280;40636;52.424;-1.948;2023-02-13T09:58:38;101661.91;;;6.13;100.00
43364;BME280;40636;52.424;-1.948;2023-02-13T10:06:46;101653.00;;;6.27;100.00
43364;BME280;40636;52.424;-1.948;2023-02-13T10:09:22;101653.66;;;6.29;100.00
43364;BME280;40636;52.424;-1.948;2023-02-13T10:15:01;101649.59;;;6.48;100.00
43364;BME280;40636;52.424;-1.948;2023-02-13T10:17:34;101655.03;;;6.48;100.00
43364;BME280;40636;52.424;-1.948;2023-02-13T10:20:06;101647.75;;;6.40;100.00
43364;BME280;40636;52.424;-1.948;2023-02-13T10:23:09;101652.88;;;6.43;100.00
43364;BME280;40636;52.424;-1.948;2023-02-13T10:25:47;101646.66;;;6.49;100.00
43364;BME280;40636;52.424;-1.948;2023-02-13T10:28:27;101656.38;;;6.52;100.00
43364;BME280;40636;52.424;-1.948;2023-02-13T10:31:02;101649.00;;;6.38;100.00
43364;BME280;40636;52.424;-1.948;2023-02-13T10:33:50;101647.91;;;6.47;100.00
43364;BME280;40636;52.424;-1.948;2023-02-13T10:39:18;101643.19;;;6.41;100.00
43364;BME280;40636;52.424;-1.948;2023-02-13T10:41:46;101647.75;;;6.40;100.00
43364;BME280;40636;52.424;-1.948;2023-02-13T10:50:30;101650.19;;;6.35;100.00
43364;BME280;40636;52.424;-1.948;2023-02-13T10:55:43;101639.41;;;6.42;100.00
43364;BME280;40636;52.424;-1.948;2023-02-13T10:58:21;101642.31;;;6.40;100.00
43364;BME280;40636;52.424;-1.948;2023-02-13T11:00:58;101636.50;;;6.43;100.00
43364;BME280;40636;52.424;-1.948;2023-02-13T11:03:29;101629.94;;;6.52;100.00
43364;BME280;40636;52.424;-1.948;2023-02-13T11:05:57;101634.22;;;6.32;100.00
43364;BME280;40636;52.424;-1.948;2023-02-13T11:08:29;101638.13;;;6.29;100.00
43364;BME280;40636;52.424;-1.948;2023-02-13T11:10:57;101632.13;;;6.34;100.00
43364;BME280;40636;52.424;-1.948;2023-02-13T11:13:26;101627.66;;;6.41;100.00
43364;BME280;40636;52.424;-1.948;2023-02-13T11:18:31;101622.19;;;6.64;100.00
43364;BME280;40636;52.424;-1.948;2023-02-13T11:21:04;101623.75;;;6.58;100.00
43364;BME280;40636;52.424;-1.948;2023-02-13T11:23:38;101627.41;;;6.51;100.00
43364;BME280;40636;52.424;-1.948;2023-02-13T11:26:20;101628.06;;;6.53;100.00
43364;BME280;40636;52.424;-1.948;2023-02-13T11:28:52;101617.00;;;6.54;100.00
43364;BME280;40636;52.424;-1.948;2023-02-13T11:31:35;101630.53;;;6.63;100.00
43364;BME280;40636;52.424;-1.948;2023-02-13T11:36:52;101618.28;;;6.81;100.00
43364;BME280;40636;52.424;-1.948;2023-02-13T11:39:21;101624.13;;;6.93;100.00
43364;BME280;40636;52.424;-1.948;2023-02-13T11:41:49;101623.66;;;6.90;100.00
43364;BME280;40636;52.424;-1.948;2023-02-13T11:44:23;101621.59;;;6.77;100.00
43364;BME280;40636;52.424;-1.948;2023-02-13T11:46:54;101618.84;;;6.77;100.00
43364;BME280;40636;52.424;-1.948;2023-02-13T11:49:26;101612.53;;;6.76;100.00
43364;BME280;40636;52.424;-1.948;2023-02-13T11:51:55;101602.84;;;6.74;100.00
43364;BME280;40636;52.424;-1.948;2023-02-13T11:57:24;101599.78;;;6.92;100.00
43364;BME280;40636;52.424;-1.948;2023-02-13T11:59:53;101588.19;;;6.90;100.00
43364;BME280;40636;52.424;-1.948;2023-02-13T12:02:23;101603.03;;;6.72;100.00
43364;BME280;40636;52.424;-1.948;2023-02-13T12:04:53;101598.13;;;6.68;100.00
43364;BME280;40636;52.424;-1.948;2023-02-13T12:07:30;101589.94;;;6.68;100.00
43364;BME280;40636;52.424;-1.948;2023-02-13T12:12:34;101594.38;;;6.83;100.00
43364;BME280;40636;52.424;-1.948;2023-02-13T12:15:15;101593.25;;;6.78;100.00
43364;BME280;40636;52.424;-1.948;2023-02-13T12:17:44;101589.56;;;6.71;100.00
43364;BME280;40636;52.424;-1.948;2023-02-13T12:20:16;101587.50;;;6.73;100.00
43364;BME280;40636;52.424;-1.948;2023-02-13T12:23:06;101591.84;;;6.82;100.00
43364;BME280;40636;52.424;-1.948;2023-02-13T12:28:40;101590.34;;;6.94;100.00
43364;BME280;40636;52.424;-1.948;2023-02-13T12:31:38;101585.66;;;6.88;100.00
43364;BME280;40636;52.424;-1.948;2023-02-13T12:43:17;101579.63;;;7.07;100.00
43364;BME280;40636;52.424;-1.948;2023-02-13T12:48:44;101575.50;;;7.11;100.00
43364;BME280;40636;52.424;-1.948;2023-02-13T13:10:48;101548.56;;;7.38;100.00
43364;BME280;40636;52.424;-1.948;2023-02-13T13:13:40;101542.78;;;7.48;100.00
43364;BME280;40636;52.424;-1.948;2023-02-13T13:16:35;101542.72;;;7.41;100.00
43364;BME280;40636;52.424;-1.948;2023-02-13T13:24:31;101534.34;;;7.43;100.00
43364;BME280;40636;52.424;-1.948;2023-02-13T13:26:59;101526.41;;;7.48;100.00
43364;BME280;40636;52.424;-1.948;2023-02-13T13:29:43;101525.56;;;7.47;100.00
43364;BME280;40636;52.424;-1.948;2023-02-13T13:32:21;101526.31;;;7.56;100.00
43364;BME280;40636;52.424;-1.948;2023-02-13T13:34:48;101515.84;;;7.59;100.00
43364;BME280;40636;52.424;-1.948;2023-02-13T13:37:25;101517.78;;;7.66;100.00
43364;BME280;40636;52.424;-1.948;2023-02-13T13:40:25;101517.59;;;7.67;100.00
43364;BME280;40636;52.424;-1.948;2023-02-13T13:43:02;101516.63;;;7.75;100.00
43364;BME280;40636;52.424;-1.948;2023-02-13T13:45:45;101511.69;;;7.63;100.00
43364;BME280;40636;52.424;-1.948;2023-02-13T13:51:17;101508.97;;;7.63;100.00
43364;BME280;40636;52.424;-1.948;2023-02-13T13:57:07;101501.34;;;7.59;100.00
43364;BME280;40636;52.424;-1.948;2023-02-13T14:05:07;101492.16;;;7.67;100.00
43364;BME280;40636;52.424;-1.948;2023-02-13T14:07:37;101497.88;;;7.72;100.00
43364;BME280;40636;52.424;-1.948;2023-02-13T14:10:05;101485.84;;;7.66;100.00
43364;BME280;40636;52.424;-1.948;2023-02-13T14:14:59;101477.06;;;7.71;100.00
43364;BME280;40636;52.424;-1.948;2023-02-13T14:31:30;101464.22;;;7.86;100.00
43364;BME280;40636;52.424;-1.948;2023-02-13T14:34:22;101461.47;;;7.86;100.00
43364;BME280;40636;52.424;-1.948;2023-02-13T14:37:04;101465.47;;;7.90;100.00
43364;BME280;40636;52.424;-1.948;2023-02-13T14:39:36;101462.50;;;7.85;100.00
43364;BME280;40636;52.424;-1.948;2023-02-13T14:42:20;101463.16;;;7.87;100.00
43364;BME280;40636;52.424;-1.948;2023-02-13T14:44:50;101460.81;;;7.84;100.00
43364;BME280;40636;52.424;-1.948;2023-02-13T14:47:29;101460.59;;;7.85;100.00
43364;BME280;40636;52.424;-1.948;2023-02-13T14:50:00;101456.25;;;7.91;100.00
43364;BME280;40636;52.424;-1.948;2023-02-13T14:52:41;101453.13;;;7.94;100.00
43364;BME280;40636;52.424;-1.948;2023-02-13T14:55:15;101454.84;;;7.95;100.00
43364;BME280;40636;52.424;-1.948;2023-02-13T14:57:46;101446.22;;;7.98;100.00
43364;BME280;40636;52.424;-1.948;2023-02-13T15:03:04;101447.41;;;7.89;100.00
43364;BME280;40636;52.424;-1.948;2023-02-13T15:05:34;101449.88;;;7.84;100.00
43364;BME280;40636;52.424;-1.948;2023-02-13T15:10:39;101448.66;;;7.86;100.00
43364;BME280;40636;52.424;-1.948;2023-02-13T15:13:19;101448.41;;;7.81;100.00
43364;BME280;40636;52.424;-1.948;2023-02-13T15:15:52;101443.94;;;7.80;100.00